Time;durP1;ratioP1;P1;durP2;ratioP2;P2;SDS_P1;SDS_P2;PMS_P1;PMS_P2;Temp;Humidity;BMP_temperature;BMP_pressure;BME280_temperature;BME280_humidity;BME280_pressure;Samples;Min_cycle;Max_cycle;Signal;HPM_P1;HPM_P2
2023/10/13 00:00:34;;;;;;;;;;;;;;;14.26;28.45;99854.47;5088071;28;19913;-61
2023/10/13 00:03:00;;;;;;;;;;;;;;;14.23;28.47;99844.16;5074991;28;20354;-59
2023/10/13 00:05:30;;;;;;;;;;;;;;;14.18;28.11;99844.84;5074705;28;19920;-59
2023/10/13 00:07:56;;;;;;;;;;;;;;;14.17;28.41;99826.16;5074829;28;19913;-59
2023/10/13 00:10:21;;;;;;;;;;;;;;;14.14;28.19;99828.28;5074101;28;19921;-59
2023/10/13 00:12:49;;;;;;;;;;;;;;;14.08;28.68;99828.41;5074355;28;20346;-61
2023/10/13 00:15:17;;;;;;;;;;;;;;;14.09;28.48;99838.13;5074456;28;19912;-60
2023/10/13 00:17:43;;;;;;;;;;;;;;;14.06;28.31;99825.94;5091242;28;19967;-60
2023/10/13 00:20:27;;;;;;;;;;;;;;;14.02;28.51;99827.47;5093035;28;20000;-60
2023/10/13 00:22:53;;;;;;;;;;;;;;;13.99;28.52;99830.59;5074808;28;19912;-60
2023/10/13 00:25:26;;;;;;;;;;;;;;;13.97;28.65;99827.31;5092652;28;19919;-61
2023/10/13 00:27:52;;;;;;;;;;;;;;;13.93;28.50;99823.44;5094829;28;19957;-61
2023/10/13 00:32:43;;;;;;;;;;;;;;;13.85;29.09;99835.38;5084641;28;19920;-60
2023/10/13 00:35:15;;;;;;;;;;;;;;;13.77;30.62;99838.41;5074648;28;19917;-60
2023/10/13 00:37:43;;;;;;;;;;;;;;;13.72;31.43;99836.41;5056211;28;19912;-59
2023/10/13 00:40:41;;;;;;;;;;;;;;;13.70;30.93;99825.00;5074170;28;20015;-60
2023/10/13 00:45:54;;;;;;;;;;;;;;;13.67;31.70;99813.84;5074126;28;20376;-60
2023/10/13 00:48:24;;;;;;;;;;;;;;;13.66;32.02;99823.81;5074241;28;19912;-60
2023/10/13 00:50:49;;;;;;;;;;;;;;;13.63;32.05;99823.47;5074126;28;20001;-61
2023/10/13 00:53:15;;;;;;;;;;;;;;;13.64;31.98;99831.31;5074022;28;20017;-58
2023/10/13 00:55:41;;;;;;;;;;;;;;;13.65;31.95;99830.28;5081602;28;19991;-60
2023/10/13 00:58:07;;;;;;;;;;;;;;;13.68;32.28;99829.00;5094273;28;19957;-62
2023/10/13 01:00:46;;;;;;;;;;;;;;;13.62;32.66;99821.81;5084471;28;20313;-61
2023/10/13 01:03:13;;;;;;;;;;;;;;;13.62;32.90;99829.94;5073681;28;20276;-61
2023/10/13 01:05:39;;;;;;;;;;;;;;;13.58;33.02;99826.84;5073799;28;19916;-61
2023/10/13 01:08:04;;;;;;;;;;;;;;;13.50;33.16;99825.31;5073492;28;20385;-60
2023/10/13 01:10:32;;;;;;;;;;;;;;;13.46;33.40;99828.69;5073136;28;19920;-60
2023/10/13 01:12:59;;;;;;;;;;;;;;;13.48;33.14;99822.03;5073974;28;20432;-59
2023/10/13 01:15:29;;;;;;;;;;;;;;;13.51;33.20;99815.34;5073734;28;19913;-58
2023/10/13 01:18:05;;;;;;;;;;;;;;;13.46;33.34;99821.41;5091635;28;19912;-60
2023/10/13 01:20:33;;;;;;;;;;;;;;;13.51;33.22;99834.22;5088952;28;19919;-58
2023/10/13 01:22:58;;;;;;;;;;;;;;;13.52;33.42;99825.91;5074204;28;19912;-58
2023/10/13 01:25:27;;;;;;;;;;;;;;;13.57;32.60;99817.09;5092515;28;20049;-60
2023/10/13 01:27:53;;;;;;;;;;;;;;;13.60;33.03;99815.84;5092895;28;19913;-60
2023/10/13 01:30:26;;;;;;;;;;;;;;;13.58;33.41;99816.06;5072400;28;19923;-59
2023/10/13 01:32:53;;;;;;;;;;;;;;;13.57;33.35;99809.00;5073691;28;19916;-60
2023/10/13 01:35:19;;;;;;;;;;;;;;;13.54;33.24;99809.50;5073646;28;19916;-60
2023/10/13 01:37:45;;;;;;;;;;;;;;;13.51;33.14;99802.66;5073557;28;20247;-60
2023/10/13 01:40:12;;;;;;;;;;;;;;;13.47;33.15;99797.97;5074980;28;19916;-60
2023/10/13 01:42:39;;;;;;;;;;;;;;;13.47;33.11;99793.38;5077601;28;20298;-60
2023/10/13 01:45:07;;;;;;;;;;;;;;;13.51;33.31;99789.16;5077765;28;20319;-61
2023/10/13 01:47:33;;;;;;;;;;;;;;;13.52;32.82;99808.88;5077408;28;19920;-61
2023/10/13 01:50:06;;;;;;;;;;;;;;;13.52;33.04;99817.81;5077607;28;19936;-61
2023/10/13 01:52:32;;;;;;;;;;;;;;;13.45;33.29;99816.25;5077746;28;19917;-61
2023/10/13 01:55:00;;;;;;;;;;;;;;;13.38;33.10;99815.53;5077374;28;19965;-60
2023/10/13 01:57:28;;;;;;;;;;;;;;;13.27;33.83;99820.59;5077573;28;19928;-60
2023/10/13 01:59:55;;;;;;;;;;;;;;;13.22;33.83;99833.09;5065214;28;19916;-60
2023/10/13 02:02:28;;;;;;;;;;;;;;;13.19;33.77;99829.00;5088957;28;20432;-60
2023/10/13 02:05:00;;;;;;;;;;;;;;;13.15;33.74;99827.81;5080462;28;19917;-60
2023/10/13 02:07:29;;;;;;;;;;;;;;;13.18;33.20;99822.75;5079467;28;19920;-61
2023/10/13 02:09:55;;;;;;;;;;;;;;;13.17;33.07;99813.03;5079971;28;19970;-61
2023/10/13 02:12:27;;;;;;;;;;;;;;;13.17;33.29;99815.75;5077822;28;20316;-60
2023/10/13 02:14:53;;;;;;;;;;;;;;;13.13;32.70;99813.72;5076966;28;20045;-61
2023/10/13 02:17:21;;;;;;;;;;;;;;;13.15;33.60;99815.16;5089863;28;19958;-61
2023/10/13 02:19:46;;;;;;;;;;;;;;;13.13;33.02;99808.31;5097100;28;19919;-59
2023/10/13 02:22:24;;;;;;;;;;;;;;;13.21;33.17;99810.72;5097286;28;19916;-60
2023/10/13 02:24:51;;;;;;;;;;;;;;;13.21;33.70;99816.13;5086897;28;19920;-60
2023/10/13 02:27:17;;;;;;;;;;;;;;;13.29;33.35;99818.47;5087614;28;20003;-61
2023/10/13 02:29:46;;;;;;;;;;;;;;;13.23;33.26;99808.63;5093975;28;20022;-60
2023/10/13 02:32:18;;;;;;;;;;;;;;;13.27;33.35;99801.72;5087670;28;20365;-60
2023/10/13 02:34:44;;;;;;;;;;;;;;;13.36;33.13;99796.88;5086001;28;19919;-61
2023/10/13 02:37:10;;;;;;;;;;;;;;;13.43;32.75;99783.28;5086105;28;19912;-61
2023/10/13 02:39:36;;;;;;;;;;;;;;;13.45;33.31;99789.28;5086370;28;19912;-60
2023/10/13 02:42:06;;;;;;;;;;;;;;;13.42;33.22;99776.25;5085019;28;19912;-60
2023/10/13 02:44:33;;;;;;;;;;;;;;;13.43;33.44;99791.38;5087318;28;20032;-61
2023/10/13 02:46:59;;;;;;;;;;;;;;;13.44;32.98;99793.84;5092799;28;19916;-60
2023/10/13 02:49:31;;;;;;;;;;;;;;;13.43;33.43;99770.63;5085922;28;20324;-61
2023/10/13 02:51:58;;;;;;;;;;;;;;;13.44;32.80;99771.44;5075686;28;19944;-61
2023/10/13 02:54:30;;;;;;;;;;;;;;;13.46;32.97;99774.72;5075859;28;19912;-61
2023/10/13 02:56:59;;;;;;;;;;;;;;;13.47;32.79;99771.81;5094927;28;19912;-61
2023/10/13 02:59:40;;;;;;;;;;;;;;;13.52;33.02;99766.56;5096626;28;20007;-61
2023/10/13 03:02:23;;;;;;;;;;;;;;;13.51;32.66;99758.69;5056709;28;19974;-61
2023/10/13 03:04:59;;;;;;;;;;;;;;;13.51;32.69;99743.31;5056079;28;19916;-59
2023/10/13 03:07:30;;;;;;;;;;;;;;;13.51;32.96;99748.72;5056039;28;19932;-60
2023/10/13 03:10:09;;;;;;;;;;;;;;;13.52;33.18;99752.22;5056062;28;19912;-60
2023/10/13 03:12:35;;;;;;;;;;;;;;;13.53;33.27;99735.81;5056335;28;19955;-60
2023/10/13 03:15:20;;;;;;;;;;;;;;;13.54;33.11;99736.66;5055569;28;19913;-60
2023/10/13 03:17:46;;;;;;;;;;;;;;;13.56;33.23;99734.53;5088878;28;19934;-60
2023/10/13 03:20:15;;;;;;;;;;;;;;;13.56;33.01;99737.25;5093310;28;19916;-60
2023/10/13 03:22:47;;;;;;;;;;;;;;;13.60;32.86;99727.63;5058351;28;19917;-60
2023/10/13 03:25:23;;;;;;;;;;;;;;;13.62;33.16;99716.59;5075615;28;19928;-59
2023/10/13 03:28:01;;;;;;;;;;;;;;;13.65;32.96;99708.03;5075644;28;19921;-60
2023/10/13 03:30:38;;;;;;;;;;;;;;;13.62;33.10;99695.84;5076713;28;19913;-59
2023/10/13 03:33:09;;;;;;;;;;;;;;;13.62;32.89;99687.75;5058615;28;19923;-59
2023/10/13 03:35:38;;;;;;;;;;;;;;;13.62;33.11;99685.03;5076332;28;19920;-59
2023/10/13 03:38:04;;;;;;;;;;;;;;;13.57;32.98;99690.31;5076456;28;19977;-59
2023/10/13 03:43:04;;;;;;;;;;;;;;;13.52;33.15;99677.53;5075910;28;19977;-59
2023/10/13 03:45:42;;;;;;;;;;;;;;;13.52;33.24;99671.28;5076298;28;19924;-60
2023/10/13 03:51:01;;;;;;;;;;;;;;;13.53;33.06;99675.66;5075981;28;20347;-59
2023/10/13 03:53:28;;;;;;;;;;;;;;;13.49;33.07;99677.16;5076032;28;20023;-58
2023/10/13 03:56:08;;;;;;;;;;;;;;;13.45;33.08;99684.91;5086003;28;20308;-59
2023/10/13 03:58:38;;;;;;;;;;;;;;;13.43;33.31;99691.56;5095780;28;19912;-60
2023/10/13 04:01:05;;;;;;;;;;;;;;;13.42;33.17;99676.44;5089967;28;19977;-60
2023/10/13 04:03:35;;;;;;;;;;;;;;;13.41;33.44;99653.22;5076369;28;20379;-60
2023/10/13 04:06:05;;;;;;;;;;;;;;;13.36;33.31;99649.34;5075895;28;19919;-60
2023/10/13 04:16:36;;;;;;;;;;;;;;;13.19;33.91;99672.63;5081303;28;19912;-60
2023/10/13 04:21:42;;;;;;;;;;;;;;;13.27;33.22;99660.69;5075309;28;19912;-60
2023/10/13 04:27:18;;;;;;;;;;;;;;;13.28;33.95;99651.53;5075012;28;20266;-58
2023/10/13 04:29:45;;;;;;;;;;;;;;;13.29;34.18;99643.22;5074750;28;19924;-60
2023/10/13 04:32:14;;;;;;;;;;;;;;;13.30;33.74;99655.69;5075005;28;19917;-61
2023/10/13 04:34:45;;;;;;;;;;;;;;;13.22;34.04;99639.78;5074913;28;19913;-61
2023/10/13 04:37:28;;;;;;;;;;;;;;;13.21;34.08;99643.56;5057189;28;19962;-61
2023/10/13 04:39:59;;;;;;;;;;;;;;;13.18;33.95;99630.53;5074811;28;19920;-61
2023/10/13 04:42:39;;;;;;;;;;;;;;;13.11;34.06;99625.25;5074316;28;20011;-60
2023/10/13 04:45:27;;;;;;;;;;;;;;;13.10;33.87;99620.09;5074396;28;20455;-61
2023/10/13 04:47:57;;;;;;;;;;;;;;;13.03;34.02;99617.47;5074131;28;19913;-61
2023/10/13 04:50:27;;;;;;;;;;;;;;;13.03;34.03;99614.78;5074702;28;19913;-61
2023/10/13 04:53:02;;;;;;;;;;;;;;;13.01;34.15;99626.88;5074525;28;19939;-61
2023/10/13 04:55:48;;;;;;;;;;;;;;;12.97;34.31;99627.31;5073866;28;19962;-61
2023/10/13 04:59:04;;;;;;;;;;;;;;;12.95;34.24;99618.63;5074551;28;19912;-61
2023/10/13 05:44:47;;;;;;;;;;;;;;;13.70;34.57;99519.28;5073454;28;20289;-60
2023/10/13 05:50:13;;;;;;;;;;;;;;;13.69;34.70;99521.16;5073519;28;19912;-60
2023/10/13 06:31:05;;;;;;;;;;;;;;;13.74;34.99;99490.75;5057751;28;19913;-60
2023/10/13 06:33:33;;;;;;;;;;;;;;;13.73;35.18;99489.13;5057963;28;19916;-60
2023/10/13 06:35:59;;;;;;;;;;;;;;;13.75;35.23;99482.44;5058285;28;19939;-58
2023/10/13 06:38:24;;;;;;;;;;;;;;;13.78;34.97;99473.06;5058329;28;20349;-60
2023/10/13 06:40:52;;;;;;;;;;;;;;;13.77;35.58;99481.38;5058047;28;19913;-60
2023/10/13 06:43:21;;;;;;;;;;;;;;;13.75;36.19;99487.81;5057236;28;20003;-60
2023/10/13 06:45:56;;;;;;;;;;;;;;;13.74;35.91;99486.19;5057159;28;19913;-60
2023/10/13 06:48:23;;;;;;;;;;;;;;;13.74;36.13;99480.81;5066045;28;20391;-59
2023/10/13 06:50:52;;;;;;;;;;;;;;;13.73;35.79;99486.44;5076787;28;19995;-61
2023/10/13 06:53:17;;;;;;;;;;;;;;;13.83;36.05;99472.31;5091691;28;19916;-62
2023/10/13 06:55:46;;;;;;;;;;;;;;;13.93;36.30;99477.94;5074724;28;20006;-62
2023/10/13 06:58:13;;;;;;;;;;;;;;;14.03;35.90;99474.59;5074718;28;19916;-62
2023/10/13 07:00:52;;;;;;;;;;;;;;;14.11;35.77;99466.94;5065360;28;20407;-61
2023/10/13 07:03:18;;;;;;;;;;;;;;;14.21;35.90;99466.31;5055288;28;20384;-62
2023/10/13 07:05:43;;;;;;;;;;;;;;;14.26;36.17;99454.75;5055473;28;19917;-63
2023/10/13 07:08:09;;;;;;;;;;;;;;;14.32;36.32;99449.22;5055603;28;19927;-61
2023/10/13 07:10:51;;;;;;;;;;;;;;;14.42;35.99;99445.88;5055544;28;19924;-62
2023/10/13 07:13:17;;;;;;;;;;;;;;;14.50;35.61;99442.78;5055654;28;19916;-61
2023/10/13 07:15:45;;;;;;;;;;;;;;;14.59;35.67;99442.41;5037753;28;19920;-61
2023/10/13 07:18:22;;;;;;;;;;;;;;;14.64;35.50;99445.19;5055817;28;20358;-61
2023/10/13 07:20:48;;;;;;;;;;;;;;;14.71;35.40;99437.75;5037542;28;19925;-59
2023/10/13 07:23:17;;;;;;;;;;;;;;;14.80;35.56;99446.25;5056014;28;19912;-60
2023/10/13 07:25:54;;;;;;;;;;;;;;;14.89;35.34;99453.72;5035877;28;20542;-61
2023/10/13 07:28:19;;;;;;;;;;;;;;;14.97;35.25;99446.22;5035648;28;19924;-62
2023/10/13 07:33:21;;;;;;;;;;;;;;;15.14;35.16;99438.91;5035904;28;20401;-61
2023/10/13 07:35:53;;;;;;;;;;;;;;;15.21;35.37;99430.59;5054929;28;19952;-61
2023/10/13 07:38:21;;;;;;;;;;;;;;;15.27;35.07;99411.50;5054618;28;20392;-61
2023/10/13 07:40:52;;;;;;;;;;;;;;;15.34;35.33;99413.19;5054874;28;19912;-61
2023/10/13 07:43:23;;;;;;;;;;;;;;;15.38;35.02;99398.94;5054998;28;19920;-61
2023/10/13 07:45:58;;;;;;;;;;;;;;;15.44;35.35;99397.13;5063062;28;20024;-61
2023/10/13 07:48:25;;;;;;;;;;;;;;;15.53;35.43;99392.88;5037181;28;20340;-61
2023/10/13 07:51:01;;;;;;;;;;;;;;;15.63;35.17;99370.53;5054927;28;19919;-61
2023/10/13 07:53:28;;;;;;;;;;;;;;;15.70;35.12;99363.03;5054743;28;20011;-61
2023/10/13 07:55:56;;;;;;;;;;;;;;;15.77;35.40;99357.47;5054143;28;20385;-61
2023/10/13 07:58:24;;;;;;;;;;;;;;;15.83;35.49;99345.59;5036899;28;19916;-61
2023/10/13 08:00:54;;;;;;;;;;;;;;;15.89;35.15;99325.63;5054963;28;19919;-61
2023/10/13 08:03:32;;;;;;;;;;;;;;;15.99;35.26;99314.06;5069192;28;19923;-61
2023/10/13 08:06:06;;;;;;;;;;;;;;;16.07;35.39;99316.31;5055683;28;19920;-61
2023/10/13 08:08:37;;;;;;;;;;;;;;;16.12;35.43;99324.47;5054767;28;19948;-61
2023/10/13 08:13:55;;;;;;;;;;;;;;;16.15;35.81;99329.34;5074420;28;19924;-61
2023/10/13 08:16:22;;;;;;;;;;;;;;;16.18;36.15;99318.03;5074612;28;20279;-61
2023/10/13 08:18:51;;;;;;;;;;;;;;;16.26;35.96;99311.31;5074162;28;20369;-61
2023/10/13 08:21:22;;;;;;;;;;;;;;;16.35;36.07;99309.75;5074244;28;19912;-61
2023/10/13 08:48:12;;;;;;;;;;;;;;;16.89;36.49;99278.09;5050425;28;20435;-61
2023/10/13 08:50:48;;;;;;;;;;;;;;;16.92;36.33;99277.56;5073021;28;19912;-62
2023/10/13 09:10:11;;;;;;;;;;;;;;;17.35;36.91;99226.69;5053740;28;19924;-61
2023/10/13 09:15:17;;;;;;;;;;;;;;;17.24;37.36;99203.34;5048559;28;19917;-61
2023/10/13 09:17:47;;;;;;;;;;;;;;;17.06;38.47;99207.38;5069680;28;19912;-62
2023/10/13 09:25:37;;;;;;;;;;;;;;;17.06;37.62;99196.53;5071649;28;19919;-60
2023/10/13 09:28:10;;;;;;;;;;;;;;;17.03;38.79;99190.56;5073509;28;19932;-60
2023/10/13 09:30:43;;;;;;;;;;;;;;;17.03;39.46;99184.28;5055173;28;19928;-60
2023/10/13 09:33:08;;;;;;;;;;;;;;;17.07;39.60;99181.84;5073181;28;19924;-60
2023/10/13 09:35:36;;;;;;;;;;;;;;;17.12;39.50;99171.84;5073212;28;19913;-60
2023/10/13 09:38:02;;;;;;;;;;;;;;;17.17;39.98;99171.03;5073207;28;19995;-60
2023/10/13 09:40:46;;;;;;;;;;;;;;;17.12;40.21;99158.28;5073565;28;20014;-63
2023/10/13 09:43:17;;;;;;;;;;;;;;;17.20;39.83;99157.75;5073417;28;19913;-63
2023/10/13 09:45:47;;;;;;;;;;;;;;;17.31;39.78;99144.19;5063037;28;19920;-62
2023/10/13 09:48:26;;;;;;;;;;;;;;;17.37;39.77;99143.13;5035621;28;20277;-63
2023/10/13 09:50:52;;;;;;;;;;;;;;;17.47;39.57;99140.38;5053420;28;19920;-63
2023/10/13 09:53:18;;;;;;;;;;;;;;;17.52;39.57;99143.09;5053094;28;19916;-62
2023/10/13 09:56:11;;;;;;;;;;;;;;;17.55;39.87;99134.44;5066731;28;20003;-62
2023/10/13 09:58:37;;;;;;;;;;;;;;;17.53;39.98;99131.19;5053206;28;19917;-62
2023/10/13 10:01:07;;;;;;;;;;;;;;;17.41;40.92;99120.56;5067314;28;19962;-62
2023/10/13 10:03:45;;;;;;;;;;;;;;;17.24;41.47;99113.81;5057221;28;19913;-62
2023/10/13 10:06:27;;;;;;;;;;;;;;;17.38;41.22;99101.31;5057090;28;20285;-62
2023/10/13 10:08:56;;;;;;;;;;;;;;;17.32;42.03;99105.13;5057232;28;19913;-61
2023/10/13 10:11:40;;;;;;;;;;;;;;;17.33;41.78;99085.06;5065464;28;19920;-62
2023/10/13 10:14:39;;;;;;;;;;;;;;;17.35;41.92;99075.53;5076712;28;19916;-63
2023/10/13 10:17:08;;;;;;;;;;;;;;;17.31;42.25;99063.63;5053827;28;19913;-61
2023/10/13 10:19:36;;;;;;;;;;;;;;;17.24;42.96;99064.97;5076952;28;19965;-63
2023/10/13 10:22:06;;;;;;;;;;;;;;;17.22;42.34;99043.53;5076761;28;19962;-64
2023/10/13 10:24:36;;;;;;;;;;;;;;;17.21;43.27;99042.69;5076839;28;19916;-61
2023/10/13 10:27:04;;;;;;;;;;;;;;;17.18;43.39;99029.69;5076848;28;19955;-62
2023/10/13 10:29:32;;;;;;;;;;;;;;;17.24;43.04;99027.00;5076471;28;20003;-62
2023/10/13 10:31:57;;;;;;;;;;;;;;;17.33;42.59;99023.44;5076534;28;19919;-63
2023/10/13 10:34:29;;;;;;;;;;;;;;;17.26;43.12;99011.25;5094474;28;20268;-61
2023/10/13 10:36:55;;;;;;;;;;;;;;;17.15;43.47;99013.97;5096914;28;19912;-62
2023/10/13 10:39:21;;;;;;;;;;;;;;;17.01;43.69;99000.16;5096871;28;19935;-62
2023/10/13 10:44:16;;;;;;;;;;;;;;;17.02;44.13;98990.09;5096379;28;20379;-61
2023/10/13 10:46:51;;;;;;;;;;;;;;;16.91;44.75;98988.50;5077722;28;19934;-61
2023/10/13 10:49:27;;;;;;;;;;;;;;;16.90;44.24;98968.69;5076230;28;19935;-61
2023/10/13 10:51:57;;;;;;;;;;;;;;;16.89;44.35;98963.53;5075940;28;19999;-61
2023/10/13 10:54:29;;;;;;;;;;;;;;;16.96;43.70;98955.94;5075617;28;19916;-61
2023/10/13 10:56:55;;;;;;;;;;;;;;;16.95;43.70;98952.41;5076141;28;19913;-61
2023/10/13 10:59:24;;;;;;;;;;;;;;;16.91;44.19;98947.81;5075964;28;19913;-62
2023/10/13 11:01:51;;;;;;;;;;;;;;;17.01;43.68;98943.19;5055520;28;20396;-62
2023/10/13 11:06:55;;;;;;;;;;;;;;;17.15;43.26;98931.78;5061425;28;19912;-61
2023/10/13 11:12:03;;;;;;;;;;;;;;;17.25;43.09;98907.31;5075441;28;20351;-62
2023/10/13 11:14:29;;;;;;;;;;;;;;;17.39;42.46;98902.13;5075241;28;19955;-62
2023/10/13 11:16:59;;;;;;;;;;;;;;;17.38;42.34;98893.19;5075628;28;19912;-62
2023/10/13 11:19:41;;;;;;;;;;;;;;;17.46;41.87;98880.94;5075577;28;19913;-62
2023/10/13 11:22:29;;;;;;;;;;;;;;;17.49;42.29;98868.69;5075596;28;20427;-62
2023/10/13 11:24:59;;;;;;;;;;;;;;;17.57;42.03;98865.41;5075528;28;20003;-62
2023/10/13 11:27:43;;;;;;;;;;;;;;;17.56;41.98;98850.22;5075343;28;19913;-62
2023/10/13 11:30:14;;;;;;;;;;;;;;;17.56;41.78;98829.31;5088999;28;20427;-61
2023/10/13 11:32:43;;;;;;;;;;;;;;;17.65;41.77;98824.09;5096231;28;19916;-62
2023/10/13 11:35:19;;;;;;;;;;;;;;;17.56;41.77;98817.63;5096236;28;20015;-62
2023/10/13 11:37:54;;;;;;;;;;;;;;;17.67;41.67;98804.81;5095974;28;19916;-61
2023/10/13 11:40:43;;;;;;;;;;;;;;;17.64;42.08;98814.31;5095715;28;20364;-62
2023/10/13 11:43:05;;;;;;;;;;;;;;;17.62;42.92;98800.22;5095184;28;19912;-62
2023/10/13 11:45:35;;;;;;;;;;;;;;;17.62;42.10;98786.66;5076804;28;20334;-62
2023/10/13 11:48:01;;;;;;;;;;;;;;;17.59;42.05;98770.94;5075278;28;19924;-61
2023/10/13 11:50:33;;;;;;;;;;;;;;;17.63;42.14;98765.75;5075164;28;19912;-62
2023/10/13 11:52:58;;;;;;;;;;;;;;;17.73;41.96;98758.34;5066820;28;20312;-62
2023/10/13 11:55:24;;;;;;;;;;;;;;;17.67;42.05;98753.25;5074066;28;19913;-62
2023/10/13 11:57:49;;;;;;;;;;;;;;;17.61;42.15;98747.03;5075032;28;19925;-62
2023/10/13 12:06:18;;;;;;;;;;;;;;;17.64;42.81;98723.94;5074677;28;19966;-62
2023/10/13 12:08:49;;;;;;;;;;;;;;;17.61;42.92;98715.25;5074512;28;20349;-61
2023/10/13 12:11:32;;;;;;;;;;;;;;;17.54;43.60;98701.19;5074172;28;20003;-60
2023/10/13 12:13:58;;;;;;;;;;;;;;;17.43;43.72;98699.66;5074307;28;19916;-61
2023/10/13 12:16:34;;;;;;;;;;;;;;;17.42;43.93;98688.00;5090055;28;19912;-63
2023/10/13 12:19:01;;;;;;;;;;;;;;;17.40;44.42;98671.19;5074256;28;19971;-61
2023/10/13 12:21:26;;;;;;;;;;;;;;;17.48;43.99;98667.06;5073908;28;19919;-61
2023/10/13 12:23:53;;;;;;;;;;;;;;;17.42;44.64;98663.56;5073974;28;19920;-61
2023/10/13 12:26:32;;;;;;;;;;;;;;;17.50;44.42;98651.28;5087192;28;19934;-61
2023/10/13 12:29:06;;;;;;;;;;;;;;;17.50;44.22;98645.88;5094699;28;19965;-62
2023/10/13 12:31:38;;;;;;;;;;;;;;;17.38;44.44;98638.09;5094539;28;19911;-62
2023/10/13 12:34:14;;;;;;;;;;;;;;;17.45;44.01;98615.25;5085628;28;20476;-62
2023/10/13 12:36:53;;;;;;;;;;;;;;;17.48;44.37;98603.84;5074107;28;19922;-62
2023/10/13 12:50:44;;;;;;;;;;;;;;;17.29;44.72;98584.72;5035835;28;19913;-61
2023/10/13 12:53:13;;;;;;;;;;;;;;;17.11;45.22;98556.38;5053792;28;20012;-62
2023/10/13 12:55:42;;;;;;;;;;;;;;;17.10;44.89;98552.84;5061378;28;19912;-62
2023/10/13 12:58:08;;;;;;;;;;;;;;;17.06;45.18;98540.94;5073804;28;19974;-61
2023/10/13 13:00:33;;;;;;;;;;;;;;;17.06;45.20;98537.44;5073739;28;19955;-62
2023/10/13 13:02:58;;;;;;;;;;;;;;;16.97;45.24;98526.38;5074166;28;19959;-61
2023/10/13 13:05:28;;;;;;;;;;;;;;;17.00;45.42;98517.69;5073775;28;20333;-62
2023/10/13 13:07:54;;;;;;;;;;;;;;;16.96;45.60;98503.09;5073478;28;20399;-62
2023/10/13 13:10:20;;;;;;;;;;;;;;;16.82;45.84;98506.41;5073277;28;20015;-61
2023/10/13 13:12:45;;;;;;;;;;;;;;;16.82;45.86;98492.03;5073621;28;19924;-61
2023/10/13 13:15:11;;;;;;;;;;;;;;;16.87;45.73;98486.59;5073673;28;20406;-61
2023/10/13 13:17:38;;;;;;;;;;;;;;;16.78;45.86;98472.00;5055522;28;19913;-61
2023/10/13 13:20:11;;;;;;;;;;;;;;;16.73;46.01;98470.13;5072326;28;20289;-62
2023/10/13 13:22:36;;;;;;;;;;;;;;;16.78;46.19;98459.25;5083576;28;20002;-62
2023/10/13 13:25:01;;;;;;;;;;;;;;;16.77;46.68;98462.25;5076639;28;20369;-62
2023/10/13 13:27:27;;;;;;;;;;;;;;;16.65;46.36;98458.00;5073296;28;19913;-62
2023/10/13 13:29:52;;;;;;;;;;;;;;;16.74;46.21;98446.56;5073361;28;19912;-62
2023/10/13 13:32:18;;;;;;;;;;;;;;;16.68;46.20;98434.97;5073314;28;19912;-62
2023/10/13 13:34:54;;;;;;;;;;;;;;;16.73;46.11;98420.53;5073472;28;19912;-62
2023/10/13 13:37:20;;;;;;;;;;;;;;;16.80;45.85;98413.69;5072564;28;19924;-62
2023/10/13 13:39:46;;;;;;;;;;;;;;;16.80;45.86;98399.34;5073372;28;19917;-62
2023/10/13 13:42:17;;;;;;;;;;;;;;;16.85;45.61;98385.78;5072996;28;20785;-62
2023/10/13 13:44:46;;;;;;;;;;;;;;;16.87;45.56;98385.50;5073007;28;20011;-62
2023/10/13 13:47:11;;;;;;;;;;;;;;;16.94;45.13;98375.94;5073358;28;19919;-61
2023/10/13 13:49:40;;;;;;;;;;;;;;;16.89;45.05;98357.00;5073078;28;19920;-62
2023/10/13 13:52:09;;;;;;;;;;;;;;;16.87;44.90;98355.66;5073007;28;19913;-62
2023/10/13 13:54:34;;;;;;;;;;;;;;;16.96;45.03;98348.53;5072810;28;19958;-62
2023/10/13 13:57:00;;;;;;;;;;;;;;;16.88;45.12;98341.81;5072890;28;19912;-62
2023/10/13 13:59:25;;;;;;;;;;;;;;;16.93;44.95;98336.34;5054962;28;19912;-62
2023/10/13 14:01:52;;;;;;;;;;;;;;;16.96;44.71;98321.41;5072663;28;20373;-61
2023/10/13 14:04:18;;;;;;;;;;;;;;;16.98;44.70;98306.47;5072906;28;19919;-62
2023/10/13 14:06:44;;;;;;;;;;;;;;;17.00;44.45;98311.59;5072967;28;19913;-61
2023/10/13 14:09:32;;;;;;;;;;;;;;;16.99;44.39;98299.94;5072858;28;20396;-62
2023/10/13 14:14:49;;;;;;;;;;;;;;;17.14;44.23;98288.09;5072757;28;19921;-62
2023/10/13 14:17:15;;;;;;;;;;;;;;;17.10;44.11;98273.50;5066519;28;20004;-62
2023/10/13 14:19:40;;;;;;;;;;;;;;;17.09;44.16;98271.91;5093112;28;19947;-62
2023/10/13 14:22:11;;;;;;;;;;;;;;;17.14;44.17;98257.44;5075023;28;20305;-62
2023/10/13 14:24:43;;;;;;;;;;;;;;;17.16;44.27;98266.94;5072968;28;20003;-62
2023/10/13 14:27:11;;;;;;;;;;;;;;;17.15;44.27;98259.06;5072787;28;19920;-61
2023/10/13 14:29:42;;;;;;;;;;;;;;;17.12;44.24;98240.66;5072911;28;20361;-62
2023/10/13 14:32:12;;;;;;;;;;;;;;;17.06;44.83;98234.50;5072678;28;19918;-62
2023/10/13 14:34:38;;;;;;;;;;;;;;;16.96;44.83;98231.94;5072668;28;19913;-62
2023/10/13 14:37:04;;;;;;;;;;;;;;;16.98;44.55;98233.25;5087760;28;19924;-62
2023/10/13 14:39:30;;;;;;;;;;;;;;;17.08;44.10;98229.59;5075775;28;19973;-61
2023/10/13 14:41:55;;;;;;;;;;;;;;;17.02;44.91;98228.84;5072470;28;19999;-62
2023/10/13 14:44:25;;;;;;;;;;;;;;;17.06;44.83;98223.66;5072709;28;20349;-62
2023/10/13 14:46:54;;;;;;;;;;;;;;;17.11;44.29;98212.75;5072385;28;19918;-62
2023/10/13 14:49:19;;;;;;;;;;;;;;;17.03;44.68;98203.34;5074981;28;19917;-62
2023/10/13 14:51:45;;;;;;;;;;;;;;;17.00;44.75;98201.22;5076176;28;19923;-62
2023/10/13 14:54:10;;;;;;;;;;;;;;;17.05;44.63;98194.94;5075284;28;20332;-61
2023/10/13 14:56:35;;;;;;;;;;;;;;;17.09;44.99;98197.88;5075716;28;19913;-61
2023/10/13 14:59:04;;;;;;;;;;;;;;;17.09;44.78;98181.59;5075792;28;19917;-62
2023/10/13 15:01:31;;;;;;;;;;;;;;;17.07;44.84;98181.06;5072894;28;19999;-62
2023/10/13 15:03:57;;;;;;;;;;;;;;;17.13;44.47;98177.19;5083019;28;19919;-62
2023/10/13 15:06:29;;;;;;;;;;;;;;;17.15;44.95;98166.84;5095845;28;19916;-62
2023/10/13 15:08:56;;;;;;;;;;;;;;;17.21;44.34;98161.06;5095825;28;19912;-61
2023/10/13 15:11:26;;;;;;;;;;;;;;;17.27;44.56;98152.84;5095650;28;19920;-62
2023/10/13 15:13:52;;;;;;;;;;;;;;;17.28;44.31;98143.63;5095468;28;19931;-61
2023/10/13 15:16:19;;;;;;;;;;;;;;;17.29;44.52;98142.50;5091663;28;19950;-62
2023/10/13 15:18:52;;;;;;;;;;;;;;;17.27;44.37;98123.78;5075795;28;19913;-62
2023/10/13 15:21:22;;;;;;;;;;;;;;;17.32;44.71;98112.06;5075521;28;19939;-61
2023/10/13 15:23:48;;;;;;;;;;;;;;;17.33;44.50;98114.50;5075617;28;20054;-62
2023/10/13 15:26:15;;;;;;;;;;;;;;;17.35;44.68;98104.16;5075574;28;19913;-61
2023/10/13 15:28:49;;;;;;;;;;;;;;;17.36;44.32;98086.75;5075596;28;19920;-61
2023/10/13 15:34:13;;;;;;;;;;;;;;;17.45;44.61;98086.09;5036351;28;19950;-61
2023/10/13 15:36:42;;;;;;;;;;;;;;;17.46;44.13;98069.53;5075319;28;20055;-61
2023/10/13 15:39:10;;;;;;;;;;;;;;;17.46;44.03;98055.94;5075376;28;19919;-62
2023/10/13 15:41:37;;;;;;;;;;;;;;;17.45;44.18;98051.63;5075349;28;19948;-61
2023/10/13 15:44:06;;;;;;;;;;;;;;;17.44;44.56;98039.16;5075388;28;19912;-62
2023/10/13 15:46:31;;;;;;;;;;;;;;;17.39;44.46;98022.97;5074988;28;20667;-62
2023/10/13 15:48:57;;;;;;;;;;;;;;;17.42;44.69;98017.75;5074950;28;19919;-62
2023/10/13 15:51:22;;;;;;;;;;;;;;;17.42;44.58;98003.38;5074926;28;19919;-61
2023/10/13 15:53:48;;;;;;;;;;;;;;;17.39;45.29;97988.50;5074171;28;19924;-61
2023/10/13 15:56:17;;;;;;;;;;;;;;;17.39;44.73;97980.34;5075046;28;20438;-59
2023/10/13 15:58:45;;;;;;;;;;;;;;;17.39;44.47;97968.72;5074650;28;19917;-60
2023/10/13 16:01:12;;;;;;;;;;;;;;;17.40;44.59;97971.13;5074642;28;19938;-61
2023/10/13 16:03:49;;;;;;;;;;;;;;;17.39;44.58;97958.66;5056907;28;19916;-61
2023/10/13 16:06:18;;;;;;;;;;;;;;;17.40;44.66;97948.59;5075347;28;20275;-60
2023/10/13 16:08:44;;;;;;;;;;;;;;;17.38;44.60;97940.78;5074995;28;20415;-62
2023/10/13 16:11:13;;;;;;;;;;;;;;;17.39;44.87;97938.88;5085908;28;19924;-61
2023/10/13 16:13:42;;;;;;;;;;;;;;;17.38;45.29;97938.06;5094682;28;20380;-62
2023/10/13 16:16:23;;;;;;;;;;;;;;;17.39;45.10;97933.44;5091787;28;19983;-62